Kekaha, HI

10:45 PM HST on August 28, 2015 (GMT -1000)
Waimea, Hi 96796 | | Change Station
CLOSE
Current Station
Personal Weather Station
Location: Waimea, HI
Elevation: 60 ft
Nearby Weather Stations

Elev 60 ft 21.95 °N, 159.67 °W | Updated 55 seconds ago

Clear
Clear
76.7 °F
Feels Like 78 °F
N
5.0
Wind Variable Wind from ENE
Gusts 8.0 mph

Today
High -- | Low -- °F
--% Chance of Precip.
Yesterday
High -- | Low -- °F
Precip. -- in
6:20 AM 6:59 PM
Full, 100% visible
Pressure 29.91 in
Visibility 10.0 miles
Clouds Clear
Heat Index 78 °F
Dew Point 73 °F
Humidity 89%
Rainfall 0.01 in
Snow Depth Not available.
UV 0 out of 12
Pollen Not available.
Air Quality Not available.
Flu Activity Not available.
METAR PHBK 290756Z AUTO 12003KT 10SM CLR 26/23 A2991 RMK AO2 SLP129 T02610228
Pressure 29.91 in
Visibility 10.0 miles
Clouds Clear
Heat Index 78 °F
Dew Point 73 °F
Humidity 89%
Rainfall 0.01 in
Snow Depth Not available.
UV 0 out of 12
Pollen Not available.
Air Quality Not available.
Flu Activity Not available.
METAR PHBK 290756Z AUTO 12003KT 10SM CLR 26/23 A2991 RMK AO2 SLP129 T02610228
The busy hurricane season continues as Hurricane Ignacio may threaten The Big Island Monday. Ignacio is expected to strengthen into a Category 2 hurricane later today, before possibly weakening to a Category 1 storm Monday. The most likely scenario is that storm will pass to the north of Hawaii, there is enough difference is guidance to suggest that residents should prepare for the storm.

10-Day Weather Forecast

×

Almanac

Astronomy

Aug. 28, 2015 Rise Set
Actual Time
Civil Twilight
Nautical Twilight
Astronomical Twilight
Moon
Length of Visible Light
Length of Day
Tomorrow will be .
, % of the Moon is Illuminated

Today's Extremes

State Highs State Lows

Community

WunderPhotos

Upload Photos

1,850,634 photos uploaded!

WunderBlogs® & News

Nearby

Air Quality

  Air Quality AQ Index Pollutant
Not available.

Snow Depth

Station Depth Elevation

Earthquake Activity

City Distance Mag. Time & Date
Minimum magnitude displayed is 2.5.

Coastal Water Temperatures

Place Temperature

Stations

Nearby Weather Stations

Station Location Temp. Windchill Dew Point Humidity Wind Precip. Elev Updated Type